Time;durP1;ratioP1;P1;durP2;ratioP2;P2;SDS_P1;SDS_P2;PMS_P1;PMS_P2;Temp;Humidity;BMP_temperature;BMP_pressure;BME280_temperature;BME280_humidity;BME280_pressure;Samples;Min_cycle;Max_cycle;Signal;HPM_P1;HPM_P2
2021/05/14 00:00:32;;;;;;;;;;;;;;;28.30;33.64;100062.00;5037620;28;875;-35
2021/05/14 00:02:57;;;;;;;;;;;;;;;28.27;33.68;100058.88;5037878;28;748;-35
2021/05/14 00:05:23;;;;;;;;;;;;;;;28.26;33.59;100060.75;5038133;28;1902;-43
2021/05/14 00:07:48;;;;;;;;;;;;;;;28.29;33.51;100054.94;5038079;28;771;-38
2021/05/14 00:10:15;;;;;;;;;;;;;;;28.32;33.40;100054.53;5036589;28;1107;-43
2021/05/14 00:12:40;;;;;;;;;;;;;;;28.28;33.80;100050.56;5037098;28;964;-35
2021/05/14 00:15:05;;;;;;;;;;;;;;;28.27;33.60;100045.38;5037414;28;804;-35
2021/05/14 00:17:31;;;;;;;;;;;;;;;28.24;33.71;100052.84;5037804;28;738;-34
2021/05/14 00:19:56;;;;;;;;;;;;;;;28.28;33.61;100049.75;5037614;28;1041;-35
2021/05/14 00:22:21;;;;;;;;;;;;;;;28.29;33.50;100052.25;5037527;28;1516;-35
2021/05/14 00:24:47;;;;;;;;;;;;;;;28.36;33.59;100053.09;5037352;28;1906;-36
2021/05/14 00:27:12;;;;;;;;;;;;;;;28.38;33.60;100049.38;5047422;28;1113;-42
2021/05/14 00:29:37;;;;;;;;;;;;;;;28.38;33.31;100055.59;5057052;28;850;-37
2021/05/14 00:32:02;;;;;;;;;;;;;;;28.29;33.73;100052.25;5057117;28;779;-37
2021/05/14 00:34:28;;;;;;;;;;;;;;;28.32;33.38;100059.09;5057337;28;802;-37
2021/05/14 00:36:53;;;;;;;;;;;;;;;28.34;33.73;100059.75;5057267;28;1230;-36
2021/05/14 00:39:18;;;;;;;;;;;;;;;28.35;33.58;100064.97;5056705;28;815;-37
2021/05/14 00:41:44;;;;;;;;;;;;;;;28.31;33.75;100057.44;5057022;28;963;-37
2021/05/14 00:44:27;;;;;;;;;;;;;;;28.33;33.45;100061.63;5057142;28;1906;-35
2021/05/14 00:46:53;;;;;;;;;;;;;;;28.28;33.53;100060.56;5057198;28;783;-46
2021/05/14 00:49:18;;;;;;;;;;;;;;;28.23;33.57;100066.56;5057273;28;755;-37
2021/05/14 00:51:44;;;;;;;;;;;;;;;28.30;33.49;100063.88;5022403;28;1162;-46
2021/05/14 00:54:09;;;;;;;;;;;;;;;28.31;33.40;100057.44;5056716;28;784;-44
2021/05/14 00:56:35;;;;;;;;;;;;;;;28.28;33.62;100058.69;5056545;28;953;-44
2021/05/14 00:59:00;;;;;;;;;;;;;;;28.29;33.79;100060.34;5038913;28;963;-43
2021/05/14 01:01:25;;;;;;;;;;;;;;;28.27;33.52;100058.88;5056392;28;760;-37
2021/05/14 01:03:50;;;;;;;;;;;;;;;28.28;33.57;100050.56;5056808;28;1008;-36
2021/05/14 01:06:16;;;;;;;;;;;;;;;28.30;33.85;100053.91;5056825;28;1961;-37
2021/05/14 01:08:41;;;;;;;;;;;;;;;28.26;33.60;100049.94;5056815;28;806;-34
2021/05/14 01:11:06;;;;;;;;;;;;;;;28.29;33.47;100046.84;5056436;28;911;-34
2021/05/14 01:13:32;;;;;;;;;;;;;;;28.29;33.44;100035.19;5056562;28;925;-38
2021/05/14 01:15:57;;;;;;;;;;;;;;;28.27;33.63;100035.38;5056894;28;759;-36
2021/05/14 01:18:23;;;;;;;;;;;;;;;28.26;33.72;100032.91;5056175;28;871;-43
2021/05/14 01:20:48;;;;;;;;;;;;;;;28.28;33.47;100026.22;5056481;28;1295;-35
2021/05/14 01:23:14;;;;;;;;;;;;;;;28.29;33.92;100025.19;5056335;28;830;-47
2021/05/14 01:25:39;;;;;;;;;;;;;;;28.22;33.76;100022.50;5056157;28;1906;-35
2021/05/14 01:28:04;;;;;;;;;;;;;;;28.34;33.63;100019.19;5038855;28;1014;-46
2021/05/14 01:30:30;;;;;;;;;;;;;;;28.34;33.97;100024.59;5036149;28;834;-36
2021/05/14 01:32:55;;;;;;;;;;;;;;;28.34;33.55;100027.31;5036061;28;784;-47
2021/05/14 01:35:20;;;;;;;;;;;;;;;28.29;33.78;100027.91;5036320;28;884;-38
2021/05/14 01:37:45;;;;;;;;;;;;;;;28.29;33.94;100027.06;5052369;28;1254;-46
2021/05/14 01:40:11;;;;;;;;;;;;;;;28.28;33.82;100011.88;5056122;28;738;-41
2021/05/14 01:42:41;;;;;;;;;;;;;;;28.35;33.60;100010.88;5043889;28;955;-47
2021/05/14 01:45:07;;;;;;;;;;;;;;;28.38;33.53;100022.31;5036159;28;1957;-38
2021/05/14 01:47:32;;;;;;;;;;;;;;;28.34;33.56;100016.47;5036167;28;827;-44
2021/05/14 01:49:57;;;;;;;;;;;;;;;28.32;33.66;100003.13;5036381;28;799;-35
2021/05/14 01:52:22;;;;;;;;;;;;;;;28.33;33.55;100009.41;5035900;28;853;-45
2021/05/14 01:54:48;;;;;;;;;;;;;;;28.41;33.51;100020.00;5036093;28;814;-42
2021/05/14 01:57:13;;;;;;;;;;;;;;;28.34;33.78;100025.41;5035941;28;1008;-43
2021/05/14 01:59:38;;;;;;;;;;;;;;;28.35;33.79;100020.84;5036036;28;1000;-37
2021/05/14 02:02:03;;;;;;;;;;;;;;;28.30;34.10;100024.16;5036052;28;763;-43
2021/05/14 02:04:29;;;;;;;;;;;;;;;28.30;33.97;100018.75;5036379;28;2089;-39
2021/05/14 02:06:54;;;;;;;;;;;;;;;28.39;33.55;100021.25;5036278;28;814;-43
2021/05/14 02:09:19;;;;;;;;;;;;;;;28.31;33.91;100025.00;5035499;28;816;-43
2021/05/14 02:11:45;;;;;;;;;;;;;;;28.37;33.60;100026.88;5036422;28;952;-38
2021/05/14 02:14:10;;;;;;;;;;;;;;;28.39;33.42;100024.81;5040190;28;827;-38
2021/05/14 02:16:35;;;;;;;;;;;;;;;28.33;33.88;100031.88;5039828;28;748;-37
2021/05/14 02:19:01;;;;;;;;;;;;;;;28.33;33.68;100037.28;5039760;28;795;-38
2021/05/14 02:21:26;;;;;;;;;;;;;;;28.28;33.65;100045.16;5039914;28;1081;-38
2021/05/14 02:23:51;;;;;;;;;;;;;;;28.29;33.79;100046.00;5039723;28;776;-46
2021/05/14 02:26:16;;;;;;;;;;;;;;;28.33;33.88;100058.91;5039318;28;1910;-36
2021/05/14 02:28:42;;;;;;;;;;;;;;;28.26;33.88;100062.63;5039966;28;964;-40
2021/05/14 02:31:07;;;;;;;;;;;;;;;28.24;33.93;100066.38;5039236;28;783;-38
2021/05/14 02:33:32;;;;;;;;;;;;;;;28.23;33.94;100077.41;5039566;28;763;-41
2021/05/14 02:35:58;;;;;;;;;;;;;;;28.22;33.77;100073.88;5040889;28;1022;-40
2021/05/14 02:38:23;;;;;;;;;;;;;;;28.27;33.75;100077.81;5057600;28;928;-42
2021/05/14 02:40:48;;;;;;;;;;;;;;;28.29;33.79;100065.78;5059207;28;783;-42
2021/05/14 02:43:14;;;;;;;;;;;;;;;28.25;33.82;100075.31;5042035;28;971;-46
2021/05/14 02:45:39;;;;;;;;;;;;;;;28.26;33.68;100081.56;5039161;28;1934;-45
2021/05/14 02:48:05;;;;;;;;;;;;;;;28.29;33.83;100078.44;5039279;28;858;-35
2021/05/14 02:50:30;;;;;;;;;;;;;;;28.27;33.92;100069.69;5039522;28;771;-46
2021/05/14 02:52:55;;;;;;;;;;;;;;;28.23;33.76;100080.09;5039060;28;779;-37
2021/05/14 02:55:21;;;;;;;;;;;;;;;28.24;33.99;100079.06;5039475;28;819;-34
2021/05/14 02:57:47;;;;;;;;;;;;;;;28.28;33.96;100074.09;5038966;28;949;-47
2021/05/14 03:00:12;;;;;;;;;;;;;;;27.55;32.19;100079.94;5038426;28;787;-44
2021/05/14 03:02:37;;;;;;;;;;;;;;;27.79;32.02;100074.22;5054453;28;1399;-38
2021/05/14 03:05:03;;;;;;;;;;;;;;;27.89;32.19;100080.06;5038998;28;1959;-46
2021/05/14 03:07:28;;;;;;;;;;;;;;;27.92;32.22;100079.66;5038986;28;699;-37
2021/05/14 03:09:53;;;;;;;;;;;;;;;27.88;32.29;100070.28;5039149;28;771;-45
2021/05/14 03:12:19;;;;;;;;;;;;;;;27.90;32.28;100070.06;5038644;28;975;-42
2021/05/14 03:14:44;;;;;;;;;;;;;;;27.87;32.17;100079.44;5038523;28;879;-46
2021/05/14 03:17:09;;;;;;;;;;;;;;;27.34;31.53;100080.91;5039092;28;790;-40
2021/05/14 03:19:34;;;;;;;;;;;;;;;26.69;30.90;100072.00;5038867;28;796;-37
2021/05/14 03:22:00;;;;;;;;;;;;;;;26.33;30.82;100072.94;5038313;28;1259;-39
2021/05/14 03:24:25;;;;;;;;;;;;;;;26.04;31.70;100070.16;5048168;28;2082;-44
2021/05/14 03:26:52;;;;;;;;;;;;;;;25.95;31.93;100061.38;5056752;28;963;-45
2021/05/14 03:29:18;;;;;;;;;;;;;;;25.76;32.12;100066.34;5058004;28;864;-35
2021/05/14 03:31:43;;;;;;;;;;;;;;;25.64;32.31;100066.00;5058596;28;771;-46
2021/05/14 03:34:08;;;;;;;;;;;;;;;25.56;32.76;100076.84;5058396;28;779;-35
2021/05/14 03:36:33;;;;;;;;;;;;;;;26.04;31.80;100073.69;5052061;28;1033;-45
2021/05/14 03:38:59;;;;;;;;;;;;;;;26.16;31.53;100078.56;5038185;28;747;-42
2021/05/14 03:41:32;;;;;;;;;;;;;;;26.21;31.04;100084.22;5041298;28;956;-43
2021/05/14 03:43:58;;;;;;;;;;;;;;;26.10;31.49;100090.13;5058072;28;1973;-42
2021/05/14 03:46:26;;;;;;;;;;;;;;;26.08;31.46;100084.91;5058367;28;779;-41
2021/05/14 03:48:51;;;;;;;;;;;;;;;26.03;31.83;100092.75;5040084;28;940;-35
2021/05/14 03:51:17;;;;;;;;;;;;;;;25.83;32.33;100081.75;5040604;28;811;-38
2021/05/14 03:53:42;;;;;;;;;;;;;;;25.42;33.15;100094.72;5057840;28;866;-44
2021/05/14 03:56:07;;;;;;;;;;;;;;;25.41;33.54;100099.28;5057713;28;951;-35
2021/05/14 03:58:32;;;;;;;;;;;;;;;25.36;33.99;100101.69;5046231;28;1439;-34
2021/05/14 04:00:58;;;;;;;;;;;;;;;25.32;34.12;100108.47;5037563;28;1031;-33
2021/05/14 04:03:23;;;;;;;;;;;;;;;25.42;33.75;100103.63;5037820;28;740;-40
2021/05/14 04:05:49;;;;;;;;;;;;;;;25.40;33.91;100107.53;5037989;28;1890;-36
2021/05/14 04:08:14;;;;;;;;;;;;;;;25.46;33.73;100109.47;5037833;28;839;-42
2021/05/14 04:16:00;;;;;;;;;;;;;;;25.36;33.89;100117.03;5057163;28;602;-41
2021/05/14 04:18:26;;;;;;;;;;;;;;;25.35;34.01;100121.56;5057578;28;822;-42
2021/05/14 04:20:51;;;;;;;;;;;;;;;25.35;33.96;100126.09;5057303;28;1074;-32
2021/05/14 04:23:16;;;;;;;;;;;;;;;25.44;33.85;100125.81;5057502;28;829;-42
2021/05/14 04:25:42;;;;;;;;;;;;;;;25.43;34.13;100126.00;5057413;28;1902;-42
2021/05/14 04:28:07;;;;;;;;;;;;;;;25.14;34.89;100120.44;5039301;28;979;-31
2021/05/14 04:30:32;;;;;;;;;;;;;;;25.37;34.36;100124.06;5037093;28;775;-37
2021/05/14 04:32:59;;;;;;;;;;;;;;;25.33;34.49;100126.28;5037596;28;791;-33
2021/05/14 04:35:24;;;;;;;;;;;;;;;25.36;34.38;100130.47;5036555;28;815;-32
2021/05/14 04:37:50;;;;;;;;;;;;;;;25.33;34.44;100139.75;5053874;28;1208;-40
2021/05/14 04:40:15;;;;;;;;;;;;;;;25.32;34.43;100127.31;5057142;28;751;-40
2021/05/14 04:42:40;;;;;;;;;;;;;;;25.30;34.58;100129.34;5042814;28;948;-42
2021/05/14 04:45:06;;;;;;;;;;;;;;;25.34;34.68;100135.22;5036691;28;1905;-41
2021/05/14 04:47:33;;;;;;;;;;;;;;;25.27;34.67;100141.34;5037123;28;788;-41
2021/05/14 04:49:58;;;;;;;;;;;;;;;25.23;34.86;100139.19;5036903;28;779;-32
2021/05/14 04:52:25;;;;;;;;;;;;;;;25.27;34.70;100140.50;5036600;28;756;-33
2021/05/14 04:54:51;;;;;;;;;;;;;;;25.29;34.74;100146.53;5052294;28;868;-41
2021/05/14 04:57:16;;;;;;;;;;;;;;;25.26;34.94;100150.44;5036652;28;956;-31
2021/05/14 04:59:42;;;;;;;;;;;;;;;25.21;34.91;100147.44;5036384;28;851;-41
2021/05/14 05:02:07;;;;;;;;;;;;;;;25.16;35.08;100144.47;5037057;28;772;-34
2021/05/14 05:04:36;;;;;;;;;;;;;;;25.21;35.02;100152.84;5036570;28;1957;-34
2021/05/14 05:07:02;;;;;;;;;;;;;;;25.33;34.91;100152.38;5036418;28;804;-31
2021/05/14 05:09:27;;;;;;;;;;;;;;;25.29;35.27;100151.94;5037116;28;887;-33
2021/05/14 05:11:52;;;;;;;;;;;;;;;25.29;35.39;100154.63;5036526;28;925;-40
2021/05/14 05:14:18;;;;;;;;;;;;;;;25.28;35.92;100153.78;5035987;28;894;-29
2021/05/14 05:16:43;;;;;;;;;;;;;;;25.27;35.72;100156.66;5036770;28;942;-40
2021/05/14 05:19:08;;;;;;;;;;;;;;;25.30;35.78;100154.44;5036392;28;792;-41
2021/05/14 05:21:34;;;;;;;;;;;;;;;25.27;35.73;100160.19;5036326;28;1093;-42
2021/05/14 05:23:59;;;;;;;;;;;;;;;25.23;36.11;100156.19;5036951;28;782;-39
2021/05/14 05:26:26;;;;;;;;;;;;;;;25.22;36.32;100159.06;5036080;28;1906;-32
2021/05/14 05:28:51;;;;;;;;;;;;;;;25.22;36.29;100154.53;5036435;28;908;-42
2021/05/14 05:31:16;;;;;;;;;;;;;;;25.35;36.20;100159.25;5036602;28;838;-41
2021/05/14 05:33:42;;;;;;;;;;;;;;;25.18;36.72;100172.03;5036676;28;743;-33
2021/05/14 05:36:07;;;;;;;;;;;;;;;25.32;36.26;100170.41;5038690;28;1089;-36
2021/05/14 05:38:33;;;;;;;;;;;;;;;25.38;36.06;100163.41;5056094;28;953;-43
2021/05/14 05:40:58;;;;;;;;;;;;;;;25.41;35.60;100165.75;5055726;28;951;-30
2021/05/14 05:43:23;;;;;;;;;;;;;;;25.45;35.74;100172.44;5036995;28;932;-34
2021/05/14 05:45:49;;;;;;;;;;;;;;;25.39;35.75;100168.63;5034617;28;1903;-39
2021/05/14 05:48:14;;;;;;;;;;;;;;;25.43;35.82;100179.84;5036159;28;769;-48
2021/05/14 05:50:39;;;;;;;;;;;;;;;25.40;35.71;100174.84;5035620;28;843;-43
2021/05/14 05:53:05;;;;;;;;;;;;;;;25.49;35.52;100170.22;5035728;28;822;-41
2021/05/14 05:55:30;;;;;;;;;;;;;;;25.48;35.68;100171.22;5035627;28;796;-46
2021/05/14 05:57:56;;;;;;;;;;;;;;;25.47;35.49;100170.41;5035495;28;995;-44
2021/05/14 06:00:21;;;;;;;;;;;;;;;25.51;35.35;100166.31;5036204;28;784;-41
2021/05/14 06:02:46;;;;;;;;;;;;;;;25.55;35.44;100164.06;5036089;28;842;-33
2021/05/14 06:05:12;;;;;;;;;;;;;;;25.59;35.49;100159.16;5018139;28;1906;-47
2021/05/14 06:07:37;;;;;;;;;;;;;;;25.53;35.58;100153.50;5035885;28;784;-33
2021/05/14 06:10:03;;;;;;;;;;;;;;;25.61;35.71;100167.91;5035913;28;764;-48
2021/05/14 06:12:28;;;;;;;;;;;;;;;25.61;35.70;100168.72;5034953;28;998;-33
2021/05/14 06:14:53;;;;;;;;;;;;;;;25.66;35.34;100174.41;5035804;28;765;-34
2021/05/14 06:17:19;;;;;;;;;;;;;;;25.60;35.66;100169.75;5035866;28;791;-46
2021/05/14 06:19:47;;;;;;;;;;;;;;;25.66;35.94;100169.00;5035608;28;1174;-33
2021/05/14 06:22:13;;;;;;;;;;;;;;;25.62;36.21;100174.94;5035817;28;910;-45
2021/05/14 06:24:38;;;;;;;;;;;;;;;25.60;36.66;100176.97;5035822;28;1973;-36
2021/05/14 06:27:03;;;;;;;;;;;;;;;25.62;36.40;100173.09;5035309;28;1039;-32
2021/05/14 06:29:29;;;;;;;;;;;;;;;25.64;35.82;100176.44;5036189;28;760;-39
2021/05/14 06:31:54;;;;;;;;;;;;;;;25.67;36.26;100170.69;5035820;28;724;-43
2021/05/14 06:34:19;;;;;;;;;;;;;;;25.68;35.86;100180.44;5035771;28;827;-32
2021/05/14 06:36:44;;;;;;;;;;;;;;;25.67;36.37;100183.34;5043344;28;1121;-44
2021/05/14 06:39:10;;;;;;;;;;;;;;;25.95;35.83;100182.63;5055503;28;755;-41
2021/05/14 06:41:35;;;;;;;;;;;;;;;26.07;35.48;100185.69;5051150;28;980;-37
2021/05/14 06:44:00;;;;;;;;;;;;;;;26.26;35.02;100178.81;5035618;28;744;-41
2021/05/14 06:46:25;;;;;;;;;;;;;;;26.32;35.15;100179.94;5035302;28;1905;-38
2021/05/14 06:48:51;;;;;;;;;;;;;;;26.36;35.08;100181.25;5035890;28;795;-38
2021/05/14 06:51:16;;;;;;;;;;;;;;;26.43;34.60;100175.06;5035073;28;823;-38
2021/05/14 06:53:42;;;;;;;;;;;;;;;26.52;34.62;100176.63;5035656;28;733;-42
2021/05/14 06:56:07;;;;;;;;;;;;;;;26.56;34.73;100177.91;5035450;28;948;-39
2021/05/14 06:58:33;;;;;;;;;;;;;;;26.66;34.88;100174.88;5037172;28;842;-43
2021/05/14 07:00:58;;;;;;;;;;;;;;;26.64;34.60;100188.56;5039203;28;783;-36
2021/05/14 07:03:23;;;;;;;;;;;;;;;26.61;34.78;100191.66;5038992;28;815;-43
2021/05/14 07:05:48;;;;;;;;;;;;;;;26.69;34.98;100190.69;5039011;28;1975;-36
2021/05/14 07:08:14;;;;;;;;;;;;;;;26.74;34.45;100190.09;5039081;28;763;-43
2021/05/14 07:10:39;;;;;;;;;;;;;;;26.81;34.36;100190.97;5038766;28;826;-40
2021/05/14 07:13:05;;;;;;;;;;;;;;;26.84;34.68;100184.38;5038283;28;968;-35
2021/05/14 07:15:30;;;;;;;;;;;;;;;26.79;34.43;100182.28;5039094;28;810;-43
2021/05/14 07:17:55;;;;;;;;;;;;;;;26.88;34.85;100193.75;5039106;28;826;-42
2021/05/14 07:20:21;;;;;;;;;;;;;;;26.93;34.32;100190.44;5053187;28;1093;-42
2021/05/14 07:22:46;;;;;;;;;;;;;;;26.94;34.20;100202.94;5038782;28;806;-43
2021/05/14 07:25:11;;;;;;;;;;;;;;;26.99;34.10;100198.59;5038750;28;1914;-43
2021/05/14 07:27:37;;;;;;;;;;;;;;;27.10;33.72;100199.13;5038151;28;1007;-33
2021/05/14 07:30:02;;;;;;;;;;;;;;;27.10;34.23;100194.56;5038250;28;1453;-35
2021/05/14 07:32:28;;;;;;;;;;;;;;;27.17;33.72;100194.63;5038974;28;744;-37
2021/05/14 07:34:54;;;;;;;;;;;;;;;27.23;33.86;100201.09;5038287;28;744;-42
2021/05/14 07:37:20;;;;;;;;;;;;;;;27.28;33.53;100198.63;5050744;28;1109;-42
2021/05/14 07:39:45;;;;;;;;;;;;;;;27.37;33.60;100202.03;5058572;28;767;-43
2021/05/14 07:42:10;;;;;;;;;;;;;;;27.48;33.75;100212.28;5049140;28;1011;-41
2021/05/14 07:44:36;;;;;;;;;;;;;;;27.54;33.35;100199.84;5038401;28;1910;-37
2021/05/14 07:47:01;;;;;;;;;;;;;;;27.55;33.49;100201.50;5038778;28;767;-38
2021/05/14 07:49:26;;;;;;;;;;;;;;;27.51;33.50;100197.50;5037834;28;895;-41
2021/05/14 07:51:52;;;;;;;;;;;;;;;27.54;33.58;100194.44;5038446;28;735;-40
2021/05/14 07:54:17;;;;;;;;;;;;;;;27.61;33.38;100197.19;5038252;28;748;-40
2021/05/14 07:56:42;;;;;;;;;;;;;;;27.68;33.38;100200.75;5037896;28;940;-36
2021/05/14 07:59:08;;;;;;;;;;;;;;;27.74;33.72;100194.56;5038303;28;882;-36
2021/05/14 08:01:34;;;;;;;;;;;;;;;27.72;33.31;100199.34;5038251;28;755;-38
2021/05/14 08:03:59;;;;;;;;;;;;;;;27.78;33.32;100202.28;5037628;28;799;-40
2021/05/14 08:06:24;;;;;;;;;;;;;;;27.80;33.30;100197.47;5038241;28;1894;-41
2021/05/14 08:08:50;;;;;;;;;;;;;;;27.90;33.05;100197.94;5037825;28;819;-40
2021/05/14 08:11:16;;;;;;;;;;;;;;;27.93;32.99;100197.53;5036994;28;933;-38
2021/05/14 08:13:41;;;;;;;;;;;;;;;28.03;32.47;100194.47;5037963;28;851;-42
2021/05/14 08:16:06;;;;;;;;;;;;;;;28.04;32.50;100198.00;5037817;28;759;-38
2021/05/14 08:18:32;;;;;;;;;;;;;;;28.14;32.50;100200.31;5037326;28;867;-38
2021/05/14 08:20:57;;;;;;;;;;;;;;;28.19;32.30;100195.13;5037459;28;1146;-39
2021/05/14 08:23:22;;;;;;;;;;;;;;;28.27;32.24;100189.53;5037631;28;732;-38
2021/05/14 08:25:48;;;;;;;;;;;;;;;28.34;32.42;100184.19;5037210;28;1910;-36
2021/05/14 08:28:13;;;;;;;;;;;;;;;28.34;31.92;100186.88;5037457;28;1011;-36
2021/05/14 08:30:42;;;;;;;;;;;;;;;28.35;32.00;100185.84;5037561;28;814;-36
2021/05/14 08:33:07;;;;;;;;;;;;;;;28.33;31.81;100179.78;5036833;28;971;-40
2021/05/14 08:35:33;;;;;;;;;;;;;;;28.38;31.99;100177.31;5037547;28;724;-41
2021/05/14 08:37:58;;;;;;;;;;;;;;;27.86;32.50;100175.88;5055313;28;1252;-42
2021/05/14 08:40:23;;;;;;;;;;;;;;;27.66;32.80;100177.66;5057012;28;829;-46
2021/05/14 08:42:49;;;;;;;;;;;;;;;27.63;32.72;100170.78;5042871;28;1010;-40
2021/05/14 08:45:14;;;;;;;;;;;;;;;27.50;32.04;100182.34;5037065;28;1967;-42
2021/05/14 08:47:40;;;;;;;;;;;;;;;27.45;32.79;100179.41;5036964;28;739;-41
2021/05/14 08:50:05;;;;;;;;;;;;;;;27.38;32.43;100179.38;5037269;28;716;-42
2021/05/14 08:52:33;;;;;;;;;;;;;;;27.31;32.93;100176.63;5036886;28;843;-42
2021/05/14 08:55:00;;;;;;;;;;;;;;;27.44;33.06;100184.00;5036711;28;886;-36
2021/05/14 08:57:25;;;;;;;;;;;;;;;27.57;32.15;100177.84;5063765;28;948;-39
2021/05/14 08:59:51;;;;;;;;;;;;;;;27.54;32.01;100185.50;5056975;28;787;-45
2021/05/14 09:02:16;;;;;;;;;;;;;;;27.58;31.84;100184.03;5056712;28;806;-46
2021/05/14 09:04:42;;;;;;;;;;;;;;;27.61;31.86;100189.06;5056664;28;1959;-39
2021/05/14 09:07:13;;;;;;;;;;;;;;;27.66;32.13;100189.28;5038567;28;1309;-38
2021/05/14 09:09:39;;;;;;;;;;;;;;;27.72;31.79;100188.53;5057082;28;746;-43
2021/05/14 09:12:04;;;;;;;;;;;;;;;27.67;31.31;100199.06;5047149;28;935;-39
2021/05/14 09:14:41;;;;;;;;;;;;;;;27.44;30.32;100196.66;5036712;28;744;-42
2021/05/14 09:17:10;;;;;;;;;;;;;;;27.39;30.99;100205.38;5036860;28;819;-36
2021/05/14 09:19:37;;;;;;;;;;;;;;;27.35;30.87;100198.69;5036236;28;847;-38
2021/05/14 09:22:08;;;;;;;;;;;;;;;27.39;30.46;100200.78;5036170;28;1088;-39
2021/05/14 09:24:34;;;;;;;;;;;;;;;27.34;29.47;100205.94;5036816;28;1906;-37
2021/05/14 09:26:59;;;;;;;;;;;;;;;27.21;30.00;100195.06;5036064;28;976;-44
2021/05/14 09:29:37;;;;;;;;;;;;;;;27.30;28.68;100196.56;5036628;28;763;-44
2021/05/14 09:32:18;;;;;;;;;;;;;;;27.42;30.59;100193.31;5051719;28;799;-42
2021/05/14 09:34:50;;;;;;;;;;;;;;;27.44;31.03;100192.09;5036344;28;843;-45
2021/05/14 09:37:18;;;;;;;;;;;;;;;27.09;30.15;100182.09;5048649;28;1113;-39
2021/05/14 09:39:44;;;;;;;;;;;;;;;27.05;31.06;100182.69;5056384;28;767;-46
2021/05/14 09:42:09;;;;;;;;;;;;;;;27.09;31.14;100184.78;5055492;28;944;-44
2021/05/14 09:44:35;;;;;;;;;;;;;;;27.00;29.01;100194.88;5056269;28;1951;-37
2021/05/14 09:47:00;;;;;;;;;;;;;;;27.19;28.72;100187.16;5055675;28;747;-39
2021/05/14 09:49:27;;;;;;;;;;;;;;;27.26;29.61;100182.63;5056165;28;831;-38
2021/05/14 09:51:56;;;;;;;;;;;;;;;27.32;29.60;100190.97;5056320;28;835;-45
2021/05/14 09:54:22;;;;;;;;;;;;;;;27.49;28.59;100197.72;5055533;28;582;-45
2021/05/14 09:57:03;;;;;;;;;;;;;;;27.48;28.97;100193.34;5048702;28;964;-39
2021/05/14 09:59:31;;;;;;;;;;;;;;;27.51;28.58;100189.41;5036335;28;755;-45
2021/05/14 10:01:56;;;;;;;;;;;;;;;27.66;28.56;100191.97;5035787;28;743;-44
2021/05/14 10:04:21;;;;;;;;;;;;;;;27.56;29.34;100173.44;5036344;28;1898;-45
2021/05/14 10:06:47;;;;;;;;;;;;;;;27.55;29.46;100170.94;5051663;28;736;-44
2021/05/14 10:09:18;;;;;;;;;;;;;;;27.57;29.18;100166.19;5035611;28;881;-46
2021/05/14 10:11:43;;;;;;;;;;;;;;;27.68;28.94;100162.06;5056620;28;984;-46
2021/05/14 10:14:09;;;;;;;;;;;;;;;27.57;29.19;100161.63;5055908;28;811;-40
2021/05/14 10:16:34;;;;;;;;;;;;;;;27.53;29.57;100159.53;5055992;28;775;-46
2021/05/14 10:18:59;;;;;;;;;;;;;;;27.55;29.35;100163.69;5038082;28;898;-46
2021/05/14 10:21:25;;;;;;;;;;;;;;;27.42;28.35;100177.97;5055756;28;1223;-39
2021/05/14 10:23:50;;;;;;;;;;;;;;;27.56;28.23;100186.94;5037917;28;851;-43
2021/05/14 10:26:15;;;;;;;;;;;;;;;27.47;28.95;100183.59;5053196;28;1983;-38
2021/05/14 10:28:44;;;;;;;;;;;;;;;27.17;29.45;100186.53;5035490;28;839;-40
2021/05/14 10:31:14;;;;;;;;;;;;;;;27.51;28.60;100184.00;5035682;28;783;-41
2021/05/14 10:33:39;;;;;;;;;;;;;;;27.60;27.98;100182.84;5038134;28;775;-35
2021/05/14 10:36:28;;;;;;;;;;;;;;;27.62;27.58;100188.03;5041675;28;1172;-32
2021/05/14 10:39:03;;;;;;;;;;;;;;;27.86;28.32;100196.69;5059273;28;810;-39
2021/05/14 10:41:28;;;;;;;;;;;;;;;27.95;28.28;100186.53;5055871;28;959;-38
2021/05/14 10:43:56;;;;;;;;;;;;;;;28.01;28.06;100195.72;5039576;28;819;-32
2021/05/14 10:46:25;;;;;;;;;;;;;;;27.65;28.33;100195.72;5039276;28;1906;-44
2021/05/14 10:49:03;;;;;;;;;;;;;;;27.64;27.50;100199.47;5039500;28;771;-39
2021/05/14 10:52:01;;;;;;;;;;;;;;;27.78;27.98;100191.47;5039386;28;790;-40
2021/05/14 10:54:38;;;;;;;;;;;;;;;27.88;29.08;100183.78;5026914;28;1230;-39
2021/05/14 10:57:04;;;;;;;;;;;;;;;27.48;30.69;100193.34;5039041;28;949;-32
2021/05/14 10:59:29;;;;;;;;;;;;;;;27.04;31.88;100184.56;5038966;28;815;-33
2021/05/14 11:01:55;;;;;;;;;;;;;;;27.36;31.09;100178.75;5039334;28;790;-38
2021/05/14 11:04:26;;;;;;;;;;;;;;;27.19;31.99;100194.44;5054187;28;1901;-43
2021/05/14 11:06:52;;;;;;;;;;;;;;;27.32;32.15;100201.78;5038852;28;799;-45
2021/05/14 11:09:18;;;;;;;;;;;;;;;27.12;33.48;100200.63;5038499;28;514;-38
2021/05/14 11:12:02;;;;;;;;;;;;;;;27.35;32.36;100187.88;5038984;28;936;-39
2021/05/14 11:14:39;;;;;;;;;;;;;;;27.59;31.04;100183.03;5038783;28;923;-41
2021/05/14 11:17:07;;;;;;;;;;;;;;;27.75;31.47;100171.06;5038421;28;855;-37
2021/05/14 11:19:32;;;;;;;;;;;;;;;27.88;30.88;100172.97;5038890;28;795;-46
2021/05/14 11:21:59;;;;;;;;;;;;;;;27.94;31.03;100177.59;5054099;28;1228;-39
2021/05/14 11:24:36;;;;;;;;;;;;;;;27.74;31.83;100191.03;5038491;28;1909;-38
2021/05/14 11:27:10;;;;;;;;;;;;;;;27.71;31.79;100186.84;5038185;28;1062;-32
2021/05/14 11:29:37;;;;;;;;;;;;;;;27.69;31.32;100185.41;5038460;28;874;-44
2021/05/14 11:32:15;;;;;;;;;;;;;;;27.43;32.03;100192.28;5038276;28;814;-41
2021/05/14 11:34:56;;;;;;;;;;;;;;;27.45;31.69;100191.06;5038712;28;767;-41
2021/05/14 11:37:23;;;;;;;;;;;;;;;27.25;32.30;100197.19;5051512;28;1124;-42
2021/05/14 11:39:48;;;;;;;;;;;;;;;27.58;32.00;100200.25;5058410;28;806;-37
2021/05/14 11:42:20;;;;;;;;;;;;;;;27.74;31.68;100191.03;5047634;28;861;-41
2021/05/14 11:44:57;;;;;;;;;;;;;;;27.82;31.79;100207.06;5038320;28;1902;-40
2021/05/14 11:47:23;;;;;;;;;;;;;;;27.92;31.42;100193.19;5038008;28;728;-41
2021/05/14 11:49:48;;;;;;;;;;;;;;;27.89;31.18;100190.03;5038331;28;788;-41
2021/05/14 11:52:13;;;;;;;;;;;;;;;27.92;31.37;100181.53;5038456;28;803;-42
2021/05/14 11:54:39;;;;;;;;;;;;;;;28.02;31.20;100184.69;5037873;28;764;-40
2021/05/14 11:57:04;;;;;;;;;;;;;;;27.87;31.42;100183.00;5038015;28;1003;-40
2021/05/14 11:59:29;;;;;;;;;;;;;;;27.92;31.39;100185.06;5038192;28;796;-40
2021/05/14 12:01:54;;;;;;;;;;;;;;;27.87;31.60;100176.75;5037738;28;775;-41
2021/05/14 12:04:20;;;;;;;;;;;;;;;27.96;31.34;100169.28;5038201;28;1902;-41
2021/05/14 12:06:46;;;;;;;;;;;;;;;27.92;31.48;100176.13;5037862;28;788;-41
2021/05/14 12:09:12;;;;;;;;;;;;;;;27.92;32.03;100171.56;5037545;28;790;-42
2021/05/14 12:11:37;;;;;;;;;;;;;;;27.89;32.20;100169.28;5037503;28;1121;-39
2021/05/14 12:14:03;;;;;;;;;;;;;;;27.95;31.97;100173.84;5037898;28;744;-42
2021/05/14 12:16:28;;;;;;;;;;;;;;;27.82;32.17;100190.03;5037482;28;747;-36
2021/05/14 12:18:54;;;;;;;;;;;;;;;27.67;32.04;100195.53;5053077;28;847;-36
2021/05/14 12:21:23;;;;;;;;;;;;;;;27.73;32.14;100200.16;5037631;28;1344;-40
2021/05/14 12:23:48;;;;;;;;;;;;;;;27.63;32.08;100214.00;5037530;28;743;-38
2021/05/14 12:26:14;;;;;;;;;;;;;;;27.29;31.76;100213.81;5039471;28;1914;-35
2021/05/14 12:28:43;;;;;;;;;;;;;;;27.48;32.24;100217.66;5057526;28;760;-38
2021/05/14 12:31:29;;;;;;;;;;;;;;;27.53;32.20;100205.44;5056570;28;847;-38
2021/05/14 12:33:55;;;;;;;;;;;;;;;27.63;31.81;100208.59;5057448;28;809;-41
2021/05/14 12:36:30;;;;;;;;;;;;;;;27.76;31.51;100194.34;5057101;28;1089;-36
2021/05/14 12:39:14;;;;;;;;;;;;;;;27.80;31.98;100197.47;5056933;28;771;-41
2021/05/14 12:41:40;;;;;;;;;;;;;;;27.72;31.93;100196.63;5056862;28;963;-38
2021/05/14 12:44:06;;;;;;;;;;;;;;;27.88;31.66;100202.72;5057498;28;735;-41
2021/05/14 12:46:31;;;;;;;;;;;;;;;27.94;31.70;100206.50;5056706;28;1957;-40
2021/05/14 12:49:09;;;;;;;;;;;;;;;27.85;31.72;100205.81;5057254;28;806;-42
2021/05/14 12:51:35;;;;;;;;;;;;;;;27.66;31.79;100207.38;5056814;28;785;-42
2021/05/14 12:54:00;;;;;;;;;;;;;;;27.69;31.42;100205.16;5056686;28;743;-41
2021/05/14 12:56:28;;;;;;;;;;;;;;;27.72;31.44;100203.91;5056174;28;1074;-37